Time;durP1;ratioP1;P1;durP2;ratioP2;P2;SDS_P1;SDS_P2;PMS_P1;PMS_P2;Temp;Humidity;BMP_temperature;BMP_pressure;BME280_temperature;BME280_humidity;BME280_pressure;Samples;Min_cycle;Max_cycle;Signal;HPM_P1;HPM_P2
2022/11/16 00:01:31;;;;;;;12.60;10.80;;;10.90;99.90;;;;;;6139432;23;20463;-91
2022/11/16 00:03:59;;;;;;;15.07;10.70;;;11.00;99.90;;;;;;6138856;23;20457;-89
2022/11/16 00:06:25;;;;;;;13.23;10.55;;;11.00;99.90;;;;;;6139544;23;20324;-90
2022/11/16 00:11:41;;;;;;;13.20;10.45;;;11.10;99.90;;;;;;6164878;23;20029;-90
2022/11/16 00:14:06;;;;;;;12.27;10.57;;;11.00;99.90;;;;;;6138862;23;20541;-89
2022/11/16 00:16:33;;;;;;;18.00;10.80;;;11.00;99.90;;;;;;6139881;23;20402;-90
2022/11/16 00:19:02;;;;;;;13.13;11.38;;;11.00;99.90;;;;;;6138052;23;20025;-89
2022/11/16 00:21:28;;;;;;;14.93;12.10;;;11.00;99.90;;;;;;6163158;23;20040;-89
2022/11/16 00:23:54;;;;;;;15.02;12.02;;;10.90;99.90;;;;;;6139911;23;20028;-90
2022/11/16 00:26:20;;;;;;;15.18;11.65;;;11.00;99.90;;;;;;6138829;23;20446;-90
2022/11/16 00:28:46;;;;;;;16.98;11.82;;;11.00;99.90;;;;;;6164161;23;20048;-89
2022/11/16 00:31:12;;;;;;;17.30;12.05;;;11.00;99.90;;;;;;6139219;23;20020;-89
2022/11/16 00:33:38;;;;;;;16.08;11.57;;;11.00;99.90;;;;;;6137438;23;20025;-90
2022/11/16 00:36:06;;;;;;;16.88;11.60;;;11.00;99.90;;;;;;6139467;23;20441;-89
2022/11/16 00:38:32;;;;;;;15.38;11.68;;;11.10;99.90;;;;;;6139958;23;20035;-89
2022/11/16 00:40:58;;;;;;;14.35;11.77;;;11.00;99.90;;;;;;6139685;23;20005;-90
2022/11/16 00:43:27;;;;;;;15.23;11.85;;;11.00;99.90;;;;;;6138841;23;20009;-89
2022/11/16 00:45:52;;;;;;;16.30;11.82;;;11.10;99.90;;;;;;6139744;23;20013;-89
2022/11/16 00:48:18;;;;;;;14.43;11.85;;;11.20;99.90;;;;;;6138536;23;20413;-89
2022/11/16 00:50:44;;;;;;;14.93;11.95;;;11.10;99.90;;;;;;6139229;23;20017;-89
2022/11/16 00:53:15;;;;;;;15.32;12.27;;;11.10;99.90;;;;;;6139859;23;20467;-89
2022/11/16 00:55:43;;;;;;;18.73;12.50;;;11.10;99.90;;;;;;6140913;23;20120;-91
2022/11/16 00:58:08;;;;;;;16.25;12.27;;;11.10;99.90;;;;;;6139765;23;20032;-92
2022/11/16 01:00:34;;;;;;;16.00;12.32;;;11.10;99.90;;;;;;6140395;23;20013;-89
2022/11/16 01:03:00;;;;;;;17.35;12.32;;;11.10;99.90;;;;;;6164335;23;20267;-90
2022/11/16 01:05:28;;;;;;;15.60;12.43;;;11.10;99.90;;;;;;6140164;23;20136;-90
2022/11/16 01:07:54;;;;;;;15.73;11.88;;;11.20;99.90;;;;;;6139780;23;20016;-90
2022/11/16 01:10:21;;;;;;;17.33;12.38;;;11.10;99.90;;;;;;6140256;23;20010;-90
2022/11/16 01:12:48;;;;;;;18.08;13.20;;;11.10;99.90;;;;;;6139222;23;20281;-90
2022/11/16 01:15:16;;;;;;;17.33;12.65;;;11.10;99.90;;;;;;6140022;23;20203;-89
2022/11/16 01:17:43;;;;;;;15.93;12.15;;;11.20;99.90;;;;;;6137530;23;20047;-92
2022/11/16 01:20:14;;;;;;;16.15;11.95;;;11.20;99.90;;;;;;6164281;23;20364;-88
2022/11/16 01:22:41;;;;;;;16.38;12.50;;;11.20;99.90;;;;;;6140269;23;20077;-89
2022/11/16 01:25:08;;;;;;;14.45;11.77;;;11.20;99.90;;;;;;6140255;23;20505;-90
2022/11/16 01:27:34;;;;;;;17.45;12.65;;;11.20;99.90;;;;;;6140264;23;20017;-91
2022/11/16 01:30:00;;;;;;;18.10;12.93;;;11.20;99.90;;;;;;6139690;23;20028;-90
2022/11/16 01:32:25;;;;;;;15.95;12.65;;;11.20;99.90;;;;;;6163807;23;20519;-90
2022/11/16 01:34:54;;;;;;;15.43;11.85;;;11.30;99.90;;;;;;6140280;23;20348;-90
2022/11/16 01:37:20;;;;;;;16.00;11.85;;;11.20;99.90;;;;;;6139589;23;20016;-91
2022/11/16 01:39:48;;;;;;;15.77;12.35;;;11.20;99.90;;;;;;6140263;23;20332;-91
2022/11/16 01:42:25;;;;;;;16.38;12.27;;;11.30;99.90;;;;;;6140808;23;20383;-89
2022/11/16 01:45:14;;;;;;;13.95;11.48;;;11.20;99.90;;;;;;6140754;23;20052;-89
2022/11/16 01:47:43;;;;;;;17.33;12.10;;;11.30;99.90;;;;;;6139340;23;20505;-91
2022/11/16 01:50:13;;;;;;;16.00;11.95;;;11.20;99.90;;;;;;6139895;23;20021;-90
2022/11/16 01:52:44;;;;;;;15.57;11.77;;;11.30;99.90;;;;;;6138758;23;20025;-89
2022/11/16 01:55:11;;;;;;;15.55;11.35;;;11.30;99.90;;;;;;6141067;23;20548;-91
2022/11/16 01:57:41;;;;;;;15.05;11.95;;;11.30;99.90;;;;;;6139607;23;20052;-90
2022/11/16 02:00:10;;;;;;;12.95;10.63;;;11.30;99.90;;;;;;6140077;23;20063;-90
2022/11/16 02:02:39;;;;;;;14.95;11.73;;;11.30;99.90;;;;;;6138000;23;20013;-89
2022/11/16 02:05:06;;;;;;;17.35;12.20;;;11.30;99.90;;;;;;6138575;23;20210;-90
2022/11/16 02:09:52;;;;;;;15.38;11.18;;;11.30;99.90;;;;;;6138935;23;20013;-90
2022/11/16 02:10:49;;;;;;;15.77;11.50;;;11.20;99.90;;;;;;6161828;23;20021;-90
2022/11/16 02:13:57;;;;;;;16.48;11.40;;;11.30;99.90;;;;;;6163535;23;20021;-90
2022/11/16 02:16:53;;;;;;;14.52;10.15;;;11.30;99.90;;;;;;6180485;23;20049;-89
2022/11/16 02:19:50;;;;;;;13.27;10.75;;;11.40;99.90;;;;;;6137792;23;20025;-91
2022/11/16 02:22:49;;;;;;;13.30;10.32;;;11.40;99.90;;;;;;6138409;23;20531;-90
2022/11/16 02:25:49;;;;;;;12.95;10.40;;;11.30;99.90;;;;;;6139422;23;20096;-91
2022/11/16 02:28:38;;;;;;;13.52;10.05;;;11.30;99.90;;;;;;6163791;23;20013;-92
2022/11/16 02:31:06;;;;;;;14.50;9.90;;;11.40;99.90;;;;;;6139339;23;20107;-89
2022/11/16 02:33:38;;;;;;;14.15;10.07;;;11.30;99.90;;;;;;6138703;23;20082;-89
2022/11/16 02:36:07;;;;;;;12.32;10.02;;;11.40;99.90;;;;;;6139281;23;20021;-90
2022/11/16 02:38:39;;;;;;;14.02;10.23;;;11.30;99.90;;;;;;6138153;23;20087;-89
2022/11/16 02:41:09;;;;;;;14.32;10.10;;;11.30;99.90;;;;;;6139687;23;20444;-88
2022/11/16 02:43:39;;;;;;;12.00;9.18;;;11.30;99.90;;;;;;6137700;23;20403;-89
2022/11/16 02:46:11;;;;;;;15.15;10.50;;;11.30;99.90;;;;;;6138888;23;20013;-91
2022/11/16 02:48:42;;;;;;;14.15;10.50;;;11.30;99.90;;;;;;6138552;23;20064;-91
2022/11/16 02:51:09;;;;;;;14.45;10.07;;;11.30;99.90;;;;;;6138100;23;20056;-91
2022/11/16 02:53:51;;;;;;;12.68;9.50;;;11.40;99.90;;;;;;6139612;23;20133;-90
2022/11/16 02:56:17;;;;;;;14.38;9.88;;;11.50;99.90;;;;;;6138615;23;20047;-90
2022/11/16 02:58:43;;;;;;;16.08;10.88;;;11.40;99.90;;;;;;6139105;23;20466;-90
2022/11/16 03:01:17;;;;;;;14.07;10.07;;;11.50;99.90;;;;;;6163726;23;20040;-90
2022/11/16 03:04:13;;;;;;;12.63;10.23;;;11.40;99.90;;;;;;6138139;23;20176;-89
2022/11/16 03:06:42;;;;;;;14.73;9.77;;;11.40;99.90;;;;;;6139321;23;20423;-89
2022/11/16 03:09:13;;;;;;;14.40;10.30;;;11.40;99.90;;;;;;6139372;23;20020;-89
2022/11/16 03:12:01;;;;;;;13.85;10.35;;;11.40;99.90;;;;;;6139574;23;20044;-90
2022/11/16 03:15:01;;;;;;;16.50;10.60;;;11.40;99.90;;;;;;6140362;23;20075;-90
2022/11/16 03:17:28;;;;;;;14.40;9.75;;;11.30;99.90;;;;;;6163749;23;20539;-88
2022/11/16 03:20:13;;;;;;;14.20;9.75;;;11.40;99.90;;;;;;6269531;22;20243;-90
2022/11/16 03:22:50;;;;;;;13.57;9.88;;;11.40;99.90;;;;;;6164219;22;20479;-90
2022/11/16 03:25:18;;;;;;;13.88;10.05;;;11.40;99.90;;;;;;6139704;23;20082;-91
2022/11/16 03:28:37;;;;;;;15.85;11.13;;;11.40;99.90;;;;;;6163990;23;20493;-90
2022/11/16 03:31:12;;;;;;;14.02;10.57;;;11.40;99.90;;;;;;6167373;23;20092;-90
2022/11/16 03:33:51;;;;;;;16.63;10.85;;;11.40;99.90;;;;;;6138133;23;20005;-90
2022/11/16 03:36:31;;;;;;;20.25;12.05;;;11.30;99.90;;;;;;6138818;23;20092;-90
2022/11/16 03:39:04;;;;;;;15.48;11.10;;;11.30;99.90;;;;;;6139670;23;20013;-89
2022/11/16 03:41:32;;;;;;;15.88;11.50;;;11.30;99.90;;;;;;6140540;23;20024;-89
2022/11/16 03:43:58;;;;;;;18.67;11.68;;;11.30;99.90;;;;;;6141729;23;20064;-89
2022/11/16 03:46:24;;;;;;;17.65;11.93;;;11.40;99.90;;;;;;6139891;23;20045;-90
2022/11/16 03:48:58;;;;;;;16.20;11.77;;;11.30;99.90;;;;;;6138651;23;20484;-90
2022/11/16 03:51:24;;;;;;;20.10;12.70;;;11.40;99.90;;;;;;6139546;23;20363;-89
2022/11/16 03:53:50;;;;;;;16.02;12.48;;;11.40;99.90;;;;;;6138767;23;20031;-89
2022/11/16 03:56:16;;;;;;;15.57;11.63;;;11.40;99.90;;;;;;6140485;23;20021;-90
2022/11/16 03:58:41;;;;;;;17.08;12.25;;;11.40;99.90;;;;;;6139155;23;20429;-88
2022/11/16 04:01:07;;;;;;;19.13;12.57;;;11.40;99.90;;;;;;6139352;23;20398;-89
2022/11/16 04:03:33;;;;;;;21.98;13.80;;;11.40;99.90;;;;;;6137397;23;20430;-89
2022/11/16 04:25:43;;;;;;;18.75;13.65;;;11.40;99.90;;;;;;6165549;23;20067;-89
2022/11/16 04:28:12;;;;;;;18.45;13.27;;;11.30;99.90;;;;;;6138534;23;20021;-89
2022/11/16 04:39:06;;;;;;;21.42;13.68;;;11.30;99.90;;;;;;6164178;23;20028;-90
2022/11/16 04:44:17;;;;;;;20.90;14.45;;;11.30;99.90;;;;;;6165451;23;20100;-90
2022/11/16 04:49:27;;;;;;;16.70;13.10;;;11.30;99.90;;;;;;6163893;23;20078;-88
2022/11/16 04:51:53;;;;;;;17.05;13.50;;;11.30;99.90;;;;;;6138496;23;20013;-90
2022/11/16 04:54:18;;;;;;;19.50;13.80;;;11.30;99.90;;;;;;6140419;23;20476;-90
2022/11/16 04:56:44;;;;;;;18.65;14.25;;;11.30;99.90;;;;;;6140745;23;20020;-90
2022/11/16 04:59:10;;;;;;;19.23;13.95;;;11.30;99.90;;;;;;6139672;23;20021;-92
2022/11/16 05:04:20;;;;;;;18.52;13.13;;;11.30;99.90;;;;;;6163682;23;20501;-90
2022/11/16 05:06:46;;;;;;;19.08;13.10;;;11.20;99.90;;;;;;6138759;23;20016;-90
2022/11/16 05:09:12;;;;;;;19.58;13.80;;;11.30;99.90;;;;;;6140855;23;20085;-90
2022/11/16 05:11:38;;;;;;;17.70;13.38;;;11.30;99.90;;;;;;6139308;23;20100;-91
2022/11/16 05:14:05;;;;;;;19.35;14.45;;;11.40;99.90;;;;;;6139765;23;20089;-90
2022/11/16 05:16:31;;;;;;;17.90;13.98;;;11.30;99.90;;;;;;6164249;23;20312;-89
2022/11/16 05:21:41;;;;;;;18.27;13.65;;;11.30;99.90;;;;;;6164276;23;20403;-91
2022/11/16 05:26:54;;;;;;;20.50;15.40;;;11.30;99.90;;;;;;6143160;23;20027;-89
2022/11/16 05:29:19;;;;;;;21.38;15.30;;;11.30;99.90;;;;;;6140669;23;20260;-91
2022/11/16 05:31:46;;;;;;;22.63;15.68;;;11.30;99.90;;;;;;6139935;23;20035;-90
2022/11/16 05:34:12;;;;;;;21.67;15.98;;;11.40;99.90;;;;;;6163652;23;20028;-90
2022/11/16 05:36:37;;;;;;;21.23;14.65;;;11.30;99.90;;;;;;6163962;23;20016;-90
2022/11/16 05:39:04;;;;;;;21.92;15.65;;;11.30;99.90;;;;;;6139491;23;20021;-90
2022/11/16 05:41:30;;;;;;;22.73;15.93;;;11.40;99.90;;;;;;6165259;23;20009;-91
2022/11/16 05:43:56;;;;;;;22.58;16.48;;;11.30;99.90;;;;;;6164114;23;20078;-89
2022/11/16 05:46:22;;;;;;;24.98;16.65;;;11.30;99.90;;;;;;6141070;23;20474;-90
2022/11/16 05:48:49;;;;;;;21.25;15.02;;;11.40;99.90;;;;;;6140836;23;20017;-91
2022/11/16 05:51:15;;;;;;;21.45;14.88;;;11.30;99.90;;;;;;6139752;23;20445;-89
2022/11/16 05:53:41;;;;;;;22.90;16.75;;;11.40;99.90;;;;;;6142372;23;20219;-91
2022/11/16 05:56:07;;;;;;;20.25;14.82;;;11.40;99.90;;;;;;6140616;23;20437;-88
2022/11/16 05:58:33;;;;;;;22.85;15.80;;;11.40;99.90;;;;;;6165434;23;20900;-90
2022/11/16 06:00:58;;;;;;;19.83;14.65;;;11.30;99.90;;;;;;6141608;23;20028;-90
2022/11/16 06:03:28;;;;;;;23.27;16.02;;;11.40;99.90;;;;;;6138268;23;20339;-91
2022/11/16 06:05:55;;;;;;;20.35;15.68;;;11.40;99.90;;;;;;6116321;23;20051;-90
2022/11/16 06:08:20;;;;;;;25.98;16.00;;;11.40;99.90;;;;;;6116007;23;20100;-91
2022/11/16 06:10:46;;;;;;;21.52;15.98;;;11.40;99.90;;;;;;6140269;23;20044;-92
2022/11/16 06:13:12;;;;;;;23.15;16.35;;;11.40;99.90;;;;;;6114936;23;20497;-91
2022/11/16 06:15:38;;;;;;;24.63;17.40;;;11.30;99.90;;;;;;6115495;23;20013;-90
2022/11/16 06:18:04;;;;;;;24.10;17.00;;;11.40;99.90;;;;;;6113928;23;20014;-89
2022/11/16 06:20:30;;;;;;;25.45;16.73;;;11.30;99.90;;;;;;6114743;23;20104;-90
2022/11/16 06:22:56;;;;;;;25.60;16.33;;;11.30;99.90;;;;;;6116801;23;20431;-91
2022/11/16 06:25:21;;;;;;;19.92;14.43;;;11.30;99.90;;;;;;6121782;23;20086;-91
2022/11/16 06:27:47;;;;;;;22.52;16.35;;;11.30;99.90;;;;;;6122457;23;20009;-90
2022/11/16 06:30:13;;;;;;;21.50;15.38;;;11.30;99.90;;;;;;6116634;23;20074;-90
2022/11/16 06:32:39;;;;;;;22.58;16.38;;;11.40;99.90;;;;;;6114074;23;20029;-91
2022/11/16 06:35:05;;;;;;;22.98;16.08;;;11.40;99.90;;;;;;6115767;23;20185;-90
2022/11/16 06:37:34;;;;;;;25.23;16.00;;;11.30;99.90;;;;;;6116652;23;20308;-90
2022/11/16 06:39:59;;;;;;;21.95;15.27;;;11.40;99.90;;;;;;6116142;23;20311;-89
2022/11/16 06:42:25;;;;;;;24.25;15.80;;;11.40;99.90;;;;;;6115871;23;20019;-90
2022/11/16 06:44:51;;;;;;;24.55;15.82;;;11.40;99.90;;;;;;6116351;23;20476;-89
2022/11/16 06:47:16;;;;;;;22.58;16.40;;;11.40;99.90;;;;;;6116637;23;20024;-89
2022/11/16 06:49:42;;;;;;;21.35;15.10;;;11.30;99.90;;;;;;6140793;23;20021;-92
2022/11/16 06:52:08;;;;;;;21.60;14.55;;;11.40;99.90;;;;;;6116673;23;20217;-89
2022/11/16 06:54:34;;;;;;;18.95;13.35;;;11.40;99.90;;;;;;6116220;23;20017;-90
2022/11/16 06:57:03;;;;;;;19.48;13.68;;;11.40;99.90;;;;;;6116668;23;20017;-90
2022/11/16 06:59:28;;;;;;;17.90;13.43;;;11.40;99.90;;;;;;6116610;23;20097;-89
2022/11/16 07:01:54;;;;;;;19.98;14.35;;;11.40;99.90;;;;;;6151747;23;20757;-89
2022/11/16 07:04:20;;;;;;;19.70;13.88;;;11.40;99.90;;;;;;6140427;23;20074;-90
2022/11/16 07:06:46;;;;;;;20.05;14.85;;;11.40;99.90;;;;;;6139732;23;20019;-90
2022/11/16 07:09:13;;;;;;;20.50;14.80;;;11.40;99.90;;;;;;6141086;23;20017;-90
2022/11/16 07:11:39;;;;;;;22.35;15.20;;;11.30;99.90;;;;;;6140494;23;20013;-90
2022/11/16 07:14:05;;;;;;;20.45;14.55;;;11.40;99.90;;;;;;6140815;23;20016;-91
2022/11/16 07:16:30;;;;;;;23.05;14.10;;;11.40;99.90;;;;;;6140831;23;20465;-89
2022/11/16 07:18:57;;;;;;;21.75;14.35;;;11.40;99.90;;;;;;6164905;23;20028;-91
2022/11/16 07:21:24;;;;;;;19.10;13.73;;;11.40;99.90;;;;;;6139988;23;20183;-89
2022/11/16 07:23:50;;;;;;;19.85;13.52;;;11.40;99.90;;;;;;6140474;23;20036;-90
2022/11/16 07:26:17;;;;;;;18.58;13.50;;;11.30;99.90;;;;;;6140956;23;20453;-90
2022/11/16 07:28:43;;;;;;;16.60;12.93;;;11.40;99.90;;;;;;6165342;23;20021;-89
2022/11/16 07:31:11;;;;;;;20.00;13.32;;;11.40;99.90;;;;;;6141499;23;20077;-91
2022/11/16 07:33:37;;;;;;;19.65;13.73;;;11.40;99.90;;;;;;6140074;23;20021;-90
2022/11/16 07:36:11;;;;;;;17.83;12.77;;;11.30;99.90;;;;;;6140680;23;20017;-90
2022/11/16 07:38:37;;;;;;;16.85;12.02;;;11.40;99.90;;;;;;6140835;23;20518;-90
2022/11/16 07:41:18;;;;;;;17.08;13.02;;;11.40;99.90;;;;;;6140540;23;20203;-90
2022/11/16 07:43:44;;;;;;;18.02;13.27;;;11.40;99.90;;;;;;6140009;23;20013;-90
2022/11/16 07:46:16;;;;;;;17.48;13.23;;;11.40;99.90;;;;;;6141376;23;20037;-91
2022/11/16 07:48:42;;;;;;;17.40;12.35;;;11.40;99.90;;;;;;6139627;23;20021;-92
2022/11/16 07:51:11;;;;;;;18.25;13.57;;;11.40;99.90;;;;;;6139929;23;20021;-91
2022/11/16 07:53:38;;;;;;;17.73;12.73;;;11.40;99.90;;;;;;6140476;23;20013;-90
2022/11/16 07:56:04;;;;;;;18.02;13.88;;;11.40;99.90;;;;;;6140055;23;20021;-89
2022/11/16 07:58:32;;;;;;;18.48;14.32;;;11.50;99.90;;;;;;6140614;23;20013;-90
2022/11/16 08:01:11;;;;;;;20.65;14.80;;;11.50;99.90;;;;;;6141229;23;20017;-90
2022/11/16 08:03:38;;;;;;;16.92;13.10;;;11.50;99.90;;;;;;6114595;23;20017;-91
2022/11/16 08:06:12;;;;;;;18.92;13.95;;;11.50;99.90;;;;;;6116515;23;20013;-90
2022/11/16 08:08:38;;;;;;;19.88;14.15;;;11.50;99.90;;;;;;6115370;23;20096;-90
2022/11/16 08:11:07;;;;;;;18.90;13.80;;;11.50;99.90;;;;;;6141308;23;20419;-89
2022/11/16 08:13:34;;;;;;;19.02;13.75;;;11.40;99.90;;;;;;6114732;23;20013;-91
2022/11/16 08:16:08;;;;;;;20.58;14.80;;;11.50;99.90;;;;;;6116563;23;20017;-91
2022/11/16 08:18:35;;;;;;;21.92;14.15;;;11.50;99.90;;;;;;6114575;23;20090;-90
2022/11/16 08:21:06;;;;;;;20.60;14.35;;;11.60;99.90;;;;;;6116747;23;20212;-92
2022/11/16 08:23:32;;;;;;;20.63;13.93;;;11.50;99.90;;;;;;6115427;23;20081;-91
2022/11/16 08:26:08;;;;;;;19.95;14.40;;;11.40;99.90;;;;;;6116279;23;20202;-90
2022/11/16 08:28:34;;;;;;;18.88;14.27;;;11.40;99.90;;;;;;6115338;23;20048;-92
2022/11/16 08:31:10;;;;;;;18.45;14.10;;;11.50;99.90;;;;;;6117624;23;20613;-91
2022/11/16 08:33:36;;;;;;;17.10;12.82;;;11.50;99.90;;;;;;6114313;23;20020;-92
2022/11/16 08:36:06;;;;;;;18.02;12.70;;;11.50;99.90;;;;;;6115641;23;20021;-90
2022/11/16 08:38:32;;;;;;;19.27;13.15;;;11.50;99.90;;;;;;6116155;23;20021;-91
2022/11/16 08:40:58;;;;;;;19.65;13.43;;;11.50;99.90;;;;;;6116930;23;20021;-91
2022/11/16 08:43:28;;;;;;;18.80;14.40;;;11.50;99.90;;;;;;6115626;23;20329;-90
2022/11/16 08:45:54;;;;;;;18.83;14.07;;;11.50;99.90;;;;;;6116251;23;20078;-90
2022/11/16 08:48:21;;;;;;;20.08;14.63;;;11.60;99.90;;;;;;6114482;23;20005;-91
2022/11/16 08:50:46;;;;;;;22.13;15.55;;;11.50;99.90;;;;;;6117077;23;20035;-90
2022/11/16 08:53:14;;;;;;;20.50;14.38;;;11.50;99.90;;;;;;6116267;23;20017;-90
2022/11/16 08:55:43;;;;;;;18.92;14.52;;;11.60;99.90;;;;;;6115843;23;20446;-91
2022/11/16 08:58:10;;;;;;;19.50;14.60;;;11.50;99.90;;;;;;6115795;23;20025;-92
2022/11/16 09:00:36;;;;;;;20.48;14.77;;;11.60;99.90;;;;;;6115688;23;20115;-91
2022/11/16 09:03:01;;;;;;;19.20;13.23;;;11.50;99.90;;;;;;6115478;23;20032;-91
2022/11/16 09:05:28;;;;;;;18.60;13.70;;;11.50;99.90;;;;;;6115856;23;20017;-90
2022/11/16 09:07:54;;;;;;;17.73;13.18;;;11.70;99.90;;;;;;6115080;23;20122;-90
2022/11/16 09:10:24;;;;;;;20.25;14.55;;;11.60;99.90;;;;;;6115797;23;20021;-89
2022/11/16 09:12:50;;;;;;;15.30;11.65;;;11.70;99.90;;;;;;6116896;23;20020;-92
2022/11/16 09:15:18;;;;;;;14.38;11.85;;;11.70;99.90;;;;;;6116919;23;20478;-91
2022/11/16 09:17:44;;;;;;;15.15;11.07;;;11.80;99.90;;;;;;6115030;23;20048;-91
2022/11/16 09:20:10;;;;;;;15.07;10.82;;;11.80;99.90;;;;;;6115930;23;20021;-90
2022/11/16 09:22:36;;;;;;;16.15;11.73;;;12.00;99.90;;;;;;6115948;23;20117;-89
2022/11/16 09:25:02;;;;;;;13.88;11.45;;;12.00;99.90;;;;;;6140124;23;20013;-91
2022/11/16 09:27:27;;;;;;;13.63;10.82;;;11.90;99.90;;;;;;6114899;23;20275;-91
2022/11/16 09:29:53;;;;;;;14.38;10.90;;;12.00;99.90;;;;;;6141446;23;20023;-90
2022/11/16 09:32:19;;;;;;;13.23;10.77;;;12.00;99.90;;;;;;6114305;23;20584;-90
2022/11/16 09:34:44;;;;;;;14.50;10.90;;;12.00;99.90;;;;;;6115583;23;20040;-90
2022/11/16 09:37:10;;;;;;;14.98;11.35;;;12.00;99.90;;;;;;6114707;23;20028;-90
2022/11/16 09:39:36;;;;;;;15.63;12.23;;;12.00;99.90;;;;;;6115691;23;20060;-91
2022/11/16 09:42:18;;;;;;;14.55;11.52;;;12.20;99.90;;;;;;6116437;23;20031;-90
2022/11/16 09:45:03;;;;;;;15.23;12.18;;;12.10;99.90;;;;;;6140104;23;20212;-90
2022/11/16 09:47:48;;;;;;;15.43;11.80;;;12.20;99.90;;;;;;6114238;23;20098;-89
2022/11/16 09:50:29;;;;;;;15.32;12.05;;;12.20;99.90;;;;;;6115515;23;20450;-91
2022/11/16 09:53:03;;;;;;;16.98;12.85;;;12.40;99.90;;;;;;6114878;23;20073;-90
2022/11/16 09:55:44;;;;;;;16.02;12.32;;;12.60;99.90;;;;;;6115680;23;20407;-91
2022/11/16 09:58:28;;;;;;;16.27;12.35;;;12.50;99.90;;;;;;6116510;23;20421;-90
2022/11/16 10:00:59;;;;;;;15.77;12.52;;;12.50;99.90;;;;;;6140866;22;20013;-89
2022/11/16 10:03:26;;;;;;;14.73;11.88;;;12.50;99.90;;;;;;6114425;23;20029;-89
2022/11/16 10:06:06;;;;;;;14.45;12.40;;;12.60;99.90;;;;;;6115373;23;20318;-90
2022/11/16 10:08:50;;;;;;;14.80;11.70;;;12.60;99.90;;;;;;6115460;23;20169;-91
2022/11/16 10:11:44;;;;;;;13.65;11.88;;;12.50;99.90;;;;;;6115759;23;20067;-90
2022/11/16 10:14:37;;;;;;;13.85;12.00;;;12.40;99.90;;;;;;6114827;23;20107;-90
2022/11/16 10:17:21;;;;;;;15.20;13.10;;;12.50;99.90;;;;;;6115556;23;20074;-89
2022/11/16 10:20:06;;;;;;;14.87;12.47;;;12.70;99.90;;;;;;6115079;23;20302;-89
2022/11/16 10:22:37;;;;;;;16.88;12.90;;;12.50;99.90;;;;;;6141227;22;20017;-90
2022/11/16 10:25:23;;;;;;;14.65;11.68;;;12.50;99.90;;;;;;6115474;23;20009;-89
2022/11/16 10:28:15;;;;;;;14.70;11.82;;;12.50;99.90;;;;;;6114402;23;20021;-91
2022/11/16 10:30:54;;;;;;;16.10;12.57;;;12.50;99.90;;;;;;6116402;23;20017;-88
2022/11/16 10:33:24;;;;;;;17.95;12.63;;;12.80;99.90;;;;;;6113209;23;20017;-89
2022/11/16 10:35:55;;;;;;;15.40;12.02;;;12.80;99.90;;;;;;6115059;23;20017;-90
2022/11/16 10:38:29;;;;;;;15.57;12.50;;;12.70;99.90;;;;;;6114736;23;20017;-89
2022/11/16 10:41:00;;;;;;;14.65;11.65;;;12.60;99.90;;;;;;6115606;23;20356;-92
2022/11/16 10:43:30;;;;;;;15.57;11.35;;;12.60;99.90;;;;;;6115707;23;20352;-89
2022/11/16 10:46:17;;;;;;;14.85;12.23;;;12.60;99.90;;;;;;6116113;23;20418;-92
2022/11/16 10:49:01;;;;;;;15.88;11.02;;;12.60;99.90;;;;;;6112435;23;20024;-89
2022/11/16 10:51:26;;;;;;;14.45;12.18;;;12.60;99.90;;;;;;6114231;23;20052;-89
2022/11/16 10:53:53;;;;;;;16.95;12.20;;;12.70;99.90;;;;;;6140012;23;20346;-90
2022/11/16 10:56:29;;;;;;;17.02;11.82;;;12.80;99.90;;;;;;6115251;23;20677;-90
2022/11/16 10:59:02;;;;;;;15.80;11.27;;;12.90;99.90;;;;;;6115236;23;20093;-90
2022/11/16 11:01:31;;;;;;;19.45;10.90;;;12.90;99.90;;;;;;6120824;23;20017;-89
2022/11/16 11:03:57;;;;;;;19.30;10.82;;;13.00;99.90;;;;;;6136810;23;20021;-89
2022/11/16 11:06:24;;;;;;;16.30;10.68;;;13.00;99.90;;;;;;6139747;23;20013;-90
2022/11/16 11:08:50;;;;;;;18.38;11.00;;;12.90;99.90;;;;;;6139045;23;20020;-90
2022/11/16 11:14:13;;;;;;;13.15;8.38;;;12.90;99.90;;;;;;6164746;23;20100;-88
2022/11/16 11:16:40;;;;;;;13.93;9.48;;;12.90;99.90;;;;;;6138547;23;20025;-90
2022/11/16 11:19:26;;;;;;;14.00;8.88;;;12.90;99.90;;;;;;6138323;23;20049;-89
2022/11/16 11:21:59;;;;;;;11.52;8.65;;;12.60;99.90;;;;;;6139432;23;20244;-89
2022/11/16 11:24:27;;;;;;;13.10;7.90;;;12.60;99.90;;;;;;6139104;23;20017;-89
2022/11/16 11:26:58;;;;;;;12.23;8.05;;;12.60;99.90;;;;;;6164256;23;20474;-89
2022/11/16 11:29:30;;;;;;;14.00;7.63;;;12.50;99.90;;;;;;6140087;23;20108;-90
2022/11/16 11:32:12;;;;;;;12.27;7.55;;;12.50;99.90;;;;;;6139851;23;20021;-89
2022/11/16 11:34:44;;;;;;;11.40;7.40;;;12.50;99.90;;;;;;6139939;23;20079;-88
2022/11/16 11:37:24;;;;;;;12.90;7.32;;;12.60;99.90;;;;;;6140346;23;20017;-90
2022/11/16 11:40:23;;;;;;;13.20;7.50;;;12.60;99.90;;;;;;6141221;23;20094;-87
2022/11/16 11:43:02;;;;;;;13.93;6.90;;;12.60;99.90;;;;;;6141000;23;20334;-88
2022/11/16 11:45:45;;;;;;;12.00;7.18;;;12.60;99.90;;;;;;6141031;23;20020;-89
2022/11/16 11:48:38;;;;;;;12.70;7.53;;;12.60;99.90;;;;;;6139964;23;20584;-89
2022/11/16 11:51:21;;;;;;;10.15;7.68;;;12.60;99.90;;;;;;6165753;23;20013;-90
2022/11/16 11:53:59;;;;;;;9.07;7.07;;;12.80;99.90;;;;;;6270999;22;20016;-90
2022/11/16 11:56:26;;;;;;;11.02;6.45;;;13.00;99.90;;;;;;6166064;23;20017;-90
2022/11/16 11:58:53;;;;;;;11.85;6.00;;;13.20;99.90;;;;;;6141319;23;20446;-89
2022/11/16 12:01:37;;;;;;;8.25;5.25;;;13.20;99.90;;;;;;6142113;23;20021;-89
2022/11/16 12:04:38;;;;;;;7.63;4.80;;;13.40;99.90;;;;;;6165380;23;20436;-89
2022/11/16 12:07:28;;;;;;;9.20;4.75;;;13.40;99.90;;;;;;6140564;23;20104;-88
2022/11/16 12:10:28;;;;;;;11.88;4.38;;;13.20;99.90;;;;;;6143353;23;20017;-89
2022/11/16 12:13:12;;;;;;;5.60;4.20;;;13.40;99.90;;;;;;6172488;22;20013;-88
2022/11/16 12:16:05;;;;;;;10.65;4.85;;;13.60;99.90;;;;;;6141346;23;20035;-88
2022/11/16 12:18:33;;;;;;;10.77;5.32;;;13.70;99.90;;;;;;6139669;23;20022;-89
2022/11/16 12:21:39;;;;;;;7.82;4.60;;;13.60;99.90;;;;;;6164745;23;20025;-89
2022/11/16 12:24:25;;;;;;;7.47;3.70;;;13.40;99.90;;;;;;6149894;23;20016;-88
2022/11/16 12:27:10;;;;;;;7.40;3.33;;;13.40;99.90;;;;;;6140540;23;20051;-89
2022/11/16 12:29:45;;;;;;;9.73;3.45;;;13.30;99.90;;;;;;6139332;23;20097;-90
2022/11/16 12:32:36;;;;;;;6.47;2.72;;;13.40;99.90;;;;;;6141370;23;20017;-89
2022/11/16 12:35:12;;;;;;;9.38;3.85;;;13.40;99.90;;;;;;6140766;23;20417;-87
2022/11/16 12:38:02;;;;;;;8.18;2.92;;;13.20;99.90;;;;;;6141265;23;20291;-89
2022/11/16 12:40:45;;;;;;;6.50;3.00;;;13.30;99.90;;;;;;6140601;23;20028;-88
2022/11/16 12:43:35;;;;;;;9.27;2.85;;;13.30;99.90;;;;;;6139934;23;20013;-89
2022/11/16 12:46:23;;;;;;;8.18;3.30;;;13.30;99.90;;;;;;6140136;23;20478;-88
2022/11/16 12:49:12;;;;;;;6.15;2.65;;;13.20;99.90;;;;;;6162432;23;20078;-89
2022/11/16 12:52:05;;;;;;;7.47;3.28;;;13.30;99.90;;;;;;6140300;23;20458;-88
2022/11/16 12:54:43;;;;;;;8.15;2.67;;;13.20;99.90;;;;;;6140395;22;20059;-89
2022/11/16 12:57:30;;;;;;;9.05;2.53;;;13.20;99.90;;;;;;6140038;23;20021;-90
2022/11/16 13:00:08;;;;;;;9.15;2.60;;;13.10;99.90;;;;;;6140854;23;20017;-90
2022/11/16 13:03:15;;;;;;;5.93;2.30;;;13.00;99.90;;;;;;6163561;23;20025;-89
2022/11/16 13:06:04;;;;;;;5.85;2.17;;;12.70;99.90;;;;;;6140750;23;20049;-90
2022/11/16 13:08:38;;;;;;;9.45;2.38;;;12.60;99.90;;;;;;6140402;23;20017;-88
2022/11/16 13:11:16;;;;;;;5.10;2.15;;;12.60;99.90;;;;;;6141145;23;20013;-90
2022/11/16 13:13:43;;;;;;;5.47;2.25;;;12.60;99.90;;;;;;6141015;23;20013;-89
2022/11/16 13:16:10;;;;;;;8.38;2.03;;;12.50;99.90;;;;;;6141479;23;20228;-88
2022/11/16 13:18:40;;;;;;;11.20;2.50;;;12.50;99.90;;;;;;6162730;23;20311;-87
2022/11/16 13:21:12;;;;;;;6.60;2.08;;;12.50;99.90;;;;;;6140027;23;20013;-87
2022/11/16 13:23:53;;;;;;;9.23;2.20;;;12.40;99.90;;;;;;6139640;23;20005;-89
2022/11/16 13:26:30;;;;;;;11.05;2.80;;;12.40;99.90;;;;;;6140925;23;20026;-89
2022/11/16 13:29:12;;;;;;;7.75;2.40;;;12.30;99.90;;;;;;6139476;23;20509;-89
2022/11/16 13:31:59;;;;;;;8.68;2.33;;;12.20;99.90;;;;;;6141017;23;20051;-88
2022/11/16 13:34:34;;;;;;;10.07;3.33;;;12.20;99.90;;;;;;6138824;23;20107;-88
2022/11/16 13:37:19;;;;;;;8.93;2.63;;;12.20;99.90;;;;;;6138933;23;20017;-89
2022/11/16 13:39:57;;;;;;;6.68;2.53;;;12.20;99.90;;;;;;6138569;23;20040;-88
2022/11/16 13:42:23;;;;;;;12.45;2.63;;;12.20;99.90;;;;;;6139744;23;20021;-88
2022/11/16 13:44:49;;;;;;;10.10;2.67;;;12.20;99.90;;;;;;6139813;23;20462;-88